createdAt,value
2019-04-07T00:01:57.537Z,10.50
2019-04-07T00:04:27.181Z,10.40
2019-04-07T00:06:56.626Z,10.40
2019-04-07T00:09:25.969Z,10.30
2019-04-07T00:11:55.352Z,10.30
2019-04-07T00:14:24.834Z,10.30
2019-04-07T00:16:54.209Z,10.20
2019-04-07T00:19:23.666Z,10.20
2019-04-07T00:21:53.916Z,10.20
2019-04-07T00:24:23.344Z,10.20
2019-04-07T00:26:52.736Z,10.10
2019-04-07T00:29:22.787Z,10.10
2019-04-07T00:31:52.333Z,10.10
2019-04-07T00:34:22.218Z,10.10
2019-04-07T00:36:52.064Z,10.10
2019-04-07T00:39:21.549Z,10.10
2019-04-07T00:41:51.077Z,10.00
2019-04-07T00:44:20.602Z,10.00
2019-04-07T00:46:49.980Z,10.00
2019-04-07T00:49:19.430Z,10.00
2019-04-07T00:51:49.960Z,10.00
2019-04-07T00:54:19.287Z,9.90
2019-04-07T00:56:49.080Z,9.90
2019-04-07T00:59:18.577Z,9.90
2019-04-07T01:01:47.907Z,9.90
2019-04-07T01:04:17.816Z,9.90
2019-04-07T01:06:47.339Z,9.90
2019-04-07T01:09:17.251Z,9.80
2019-04-07T01:11:47.303Z,9.80
2019-04-07T01:14:17.025Z,9.80
2019-04-07T01:16:47.138Z,9.80
2019-04-07T01:19:16.605Z,9.80
2019-04-07T01:21:45.920Z,9.70
2019-04-07T01:24:15.306Z,9.70
2019-04-07T01:26:44.731Z,9.70
2019-04-07T01:29:14.721Z,9.70
2019-04-07T01:31:44.287Z,9.70
2019-04-07T01:34:13.699Z,9.60
2019-04-07T01:36:43.043Z,9.60
2019-04-07T01:39:12.927Z,9.60
2019-04-07T01:42:01.628Z,9.50
2019-04-07T01:44:38.747Z,9.50
2019-04-07T01:47:16.799Z,9.50
2019-04-07T01:50:08.317Z,9.40
2019-04-07T01:52:59.695Z,9.40
2019-04-07T01:56:03.432Z,9.30
2019-04-07T01:58:50.986Z,9.30
2019-04-07T02:01:29.659Z,9.30
2019-04-07T02:04:20.443Z,9.20
2019-04-07T02:07:24.612Z,9.20
2019-04-07T02:10:13.614Z,9.20
2019-04-07T02:13:01.066Z,9.20
2019-04-07T02:15:49.825Z,9.20
2019-04-07T02:18:38.798Z,9.10
2019-04-07T02:21:30.305Z,9.10
2019-04-07T02:24:19.225Z,9.10
2019-04-07T02:27:05.248Z,9.10
2019-04-07T02:29:52.813Z,9.00
2019-04-07T02:32:56.385Z,9.00
2019-04-07T02:36:13.503Z,9.00
2019-04-07T02:38:50.068Z,8.90
2019-04-07T02:41:38.390Z,8.90
2019-04-07T02:44:21.992Z,8.90
2019-04-07T02:47:02.957Z,8.90
2019-04-07T02:50:03.969Z,8.90
2019-04-07T02:53:05.588Z,8.90
2019-04-07T02:55:55.494Z,8.90
2019-04-07T02:58:55.859Z,8.80
2019-04-07T03:01:39.857Z,8.80
2019-04-07T03:04:31.082Z,8.80
2019-04-07T03:07:22.271Z,8.80
2019-04-07T03:10:00.379Z,8.80
2019-04-07T03:13:01.093Z,8.70
2019-04-07T03:15:36.328Z,8.70
2019-04-07T03:18:13.048Z,8.70
2019-04-07T03:21:04.347Z,8.70
2019-04-07T03:23:51.449Z,8.60
2019-04-07T03:26:46.610Z,8.60
2019-04-07T03:29:38.449Z,8.50
2019-04-07T03:32:45.395Z,8.50
2019-04-07T03:35:30.160Z,8.50
2019-04-07T03:38:36.673Z,8.50
2019-04-07T03:41:29.106Z,8.50
2019-04-07T03:44:27.667Z,8.40
2019-04-07T03:47:04.618Z,8.40
2019-04-07T03:49:55.754Z,8.40
2019-04-07T03:52:56.473Z,8.30
2019-04-07T03:55:41.389Z,8.40
2019-04-07T03:58:39.849Z,8.30
2019-04-07T04:01:35.592Z,8.30
2019-04-07T04:04:30.754Z,8.30
2019-04-07T04:07:22.850Z,8.30
2019-04-07T04:10:03.354Z,8.30
2019-04-07T04:12:43.685Z,8.20
2019-04-07T04:15:20.129Z,8.20
2019-04-07T04:17:49.730Z,8.20
2019-04-07T04:20:19.731Z,8.20
2019-04-07T04:22:49.159Z,8.10
2019-04-07T04:25:19.162Z,8.10
2019-04-07T04:27:48.697Z,8.10
2019-04-07T04:30:18.990Z,8.10
2019-04-07T04:32:48.417Z,8.10
2019-04-07T04:35:17.780Z,8.10
2019-04-07T04:37:51.632Z,8.00
2019-04-07T04:40:19.084Z,8.00
2019-04-07T04:42:48.974Z,8.00
2019-04-07T04:45:18.378Z,8.00
2019-04-07T04:47:48.252Z,7.90
2019-04-07T04:50:17.708Z,7.90
2019-04-07T04:52:47.095Z,7.90
2019-04-07T04:55:16.634Z,7.90
2019-04-07T04:57:46.271Z,7.90
2019-04-07T05:00:15.826Z,7.80
2019-04-07T05:02:45.694Z,7.80
2019-04-07T05:05:15.154Z,7.80
2019-04-07T05:07:55.407Z,7.80
2019-04-07T05:10:15.588Z,7.80
2019-04-07T05:12:44.995Z,7.80
2019-04-07T05:15:14.727Z,7.80
2019-04-07T05:17:44.583Z,7.80
2019-04-07T05:20:14.053Z,7.80
2019-04-07T05:22:43.430Z,7.70
2019-04-07T05:25:13.086Z,7.70
2019-04-07T05:27:43.224Z,7.70
2019-04-07T05:30:12.885Z,7.70
2019-04-07T05:32:42.311Z,7.70
2019-04-07T05:35:12.067Z,7.70
2019-04-07T05:37:41.777Z,7.70
2019-04-07T05:40:11.326Z,7.70
2019-04-07T05:42:40.862Z,7.70
2019-04-07T05:45:10.254Z,7.70
2019-04-07T05:47:43.193Z,7.70
2019-04-07T05:50:11.132Z,7.70
2019-04-07T05:52:40.934Z,7.70
2019-04-07T05:55:10.897Z,7.70
2019-04-07T05:57:40.332Z,7.70
2019-04-07T06:00:15.709Z,7.80
2019-04-07T06:02:44.073Z,7.80
2019-04-07T06:05:16.298Z,7.80
2019-04-07T06:07:44.893Z,7.90
2019-04-07T06:10:14.574Z,7.90
2019-04-07T06:12:46.881Z,8.00
2019-04-07T06:15:20.151Z,8.00
2019-04-07T06:17:46.238Z,8.00
2019-04-07T06:20:17.525Z,8.10
2019-04-07T06:22:47.647Z,8.20
2019-04-07T06:25:18.660Z,8.20
2019-04-07T06:27:48.877Z,8.20
2019-04-07T06:30:19.424Z,8.40
2019-04-07T06:32:48.817Z,8.40
2019-04-07T06:35:18.315Z,8.50
2019-04-07T06:37:47.753Z,8.60
2019-04-07T06:40:20.338Z,8.70
2019-04-07T06:42:48.849Z,8.90
2019-04-07T06:45:22.746Z,8.90
2019-04-07T06:47:55.260Z,9.10
2019-04-07T06:50:50.225Z,9.20
2019-04-07T06:53:36.616Z,9.40
2019-04-07T06:56:26.015Z,9.50
2019-04-07T06:59:17.677Z,9.60
2019-04-07T07:01:59.507Z,9.80
2019-04-07T07:04:43.549Z,9.90
2019-04-07T07:07:22.671Z,10.10
2019-04-07T07:10:25.261Z,10.20
2019-04-07T07:13:09.461Z,10.40
2019-04-07T07:15:50.401Z,10.50
2019-04-07T07:18:25.580Z,10.60
2019-04-07T07:21:09.934Z,10.80
2019-04-07T07:23:44.835Z,10.90
2019-04-07T07:26:12.340Z,11.10
2019-04-07T07:28:43.933Z,11.30
2019-04-07T07:31:13.267Z,11.40
2019-04-07T07:33:43.916Z,11.60
2019-04-07T07:36:17.370Z,11.80
2019-04-07T07:38:55.583Z,11.90
2019-04-07T07:41:19.168Z,12.10
2019-04-07T07:43:47.140Z,12.20
2019-04-07T07:46:20.586Z,12.40
2019-04-07T07:48:47.696Z,12.50
2019-04-07T07:51:17.053Z,12.70
2019-04-07T07:53:47.108Z,12.80
2019-04-07T07:56:17.001Z,13.00
2019-04-07T07:58:47.231Z,13.20
2019-04-07T08:01:17.804Z,13.30
2019-04-07T08:03:51.482Z,13.30
2019-04-07T08:06:18.532Z,13.40
2019-04-07T08:08:48.613Z,13.50
2019-04-07T08:11:18.764Z,13.60
2019-04-07T08:13:48.196Z,13.70
2019-04-07T08:16:19.097Z,13.80
2019-04-07T08:18:48.791Z,13.90
2019-04-07T08:21:19.955Z,14.00
2019-04-07T08:23:49.256Z,14.00
2019-04-07T08:26:19.368Z,14.10
2019-04-07T08:28:49.311Z,14.20
2019-04-07T08:31:21.482Z,14.30
2019-04-07T08:33:51.455Z,14.40
2019-04-07T08:36:21.196Z,14.50
2019-04-07T08:38:53.837Z,14.60
2019-04-07T08:41:22.289Z,14.70
2019-04-07T08:44:11.497Z,14.90
2019-04-07T08:46:43.105Z,15.00
2019-04-07T08:49:12.786Z,15.20
2019-04-07T08:51:42.750Z,15.30
2019-04-07T08:54:15.719Z,15.40
2019-04-07T08:56:43.641Z,15.50
2019-04-07T08:59:16.794Z,15.70
2019-04-07T09:01:44.641Z,15.80
2019-04-07T09:04:18.839Z,15.90
2019-04-07T09:06:48.893Z,16.00
2019-04-07T09:09:18.328Z,16.10
2019-04-07T09:11:53.038Z,16.20
2019-04-07T09:14:20.284Z,16.40
2019-04-07T09:17:14.937Z,16.40
2019-04-07T09:20:15.415Z,16.50
2019-04-07T09:23:06.815Z,16.70
2019-04-07T09:25:56.188Z,16.90
2019-04-07T09:28:39.606Z,17.00
2019-04-07T09:31:17.579Z,17.10
2019-04-07T09:34:22.018Z,17.20
2019-04-07T09:37:09.702Z,17.40
2019-04-07T09:40:04.428Z,17.50
2019-04-07T09:42:59.972Z,17.60
2019-04-07T09:45:47.949Z,17.70
2019-04-07T09:48:32.065Z,17.70
2019-04-07T09:51:39.836Z,17.80
2019-04-07T09:54:19.173Z,17.90
2019-04-07T09:56:57.254Z,18.00
2019-04-07T09:59:33.917Z,18.10
2019-04-07T10:02:22.328Z,18.20
2019-04-07T10:05:11.301Z,18.30
2019-04-07T10:07:59.000Z,18.40
2019-04-07T10:10:46.074Z,18.40
2019-04-07T10:13:44.117Z,18.50
2019-04-07T10:16:41.966Z,18.60
2019-04-07T10:19:29.971Z,18.60
2019-04-07T10:22:27.687Z,18.60
2019-04-07T10:25:20.109Z,18.70
2019-04-07T10:28:10.537Z,18.80
2019-04-07T10:30:55.008Z,18.80
2019-04-07T10:33:31.570Z,18.80
2019-04-07T10:36:11.239Z,18.90
2019-04-07T10:38:59.152Z,19.00
2019-04-07T10:41:54.279Z,19.00
2019-04-07T10:44:49.275Z,19.10
2019-04-07T10:47:38.470Z,19.10
2019-04-07T10:50:24.720Z,19.10
2019-04-07T10:53:12.503Z,19.20
2019-04-07T10:55:47.488Z,19.20
2019-04-07T10:58:32.431Z,19.30
2019-04-07T11:01:19.562Z,19.30
2019-04-07T11:03:57.661Z,19.40
2019-04-07T11:06:37.019Z,19.40
2019-04-07T11:09:19.531Z,19.40
2019-04-07T11:12:14.351Z,19.40
2019-04-07T11:15:02.713Z,19.50
2019-04-07T11:17:50.293Z,19.60
2019-04-07T11:20:42.129Z,19.60
2019-04-07T11:23:27.000Z,19.70
2019-04-07T11:26:31.042Z,19.80
2019-04-07T11:29:39.588Z,19.80
2019-04-07T11:32:22.899Z,19.80
2019-04-07T11:35:17.410Z,19.90
2019-04-07T11:37:57.165Z,19.90
2019-04-07T11:40:49.597Z,20.00
2019-04-07T11:43:28.844Z,20.10
2019-04-07T11:46:14.081Z,20.10
2019-04-07T11:48:47.912Z,20.10
2019-04-07T11:51:40.625Z,20.20
2019-04-07T11:54:30.812Z,20.20
2019-04-07T11:57:07.074Z,20.20
2019-04-07T11:59:55.609Z,20.20
2019-04-07T12:02:54.390Z,20.20
2019-04-07T12:05:39.872Z,20.20
2019-04-07T12:08:44.589Z,20.20
2019-04-07T12:11:46.355Z,20.30
2019-04-07T12:14:45.515Z,20.30
2019-04-07T12:17:33.008Z,20.30
2019-04-07T12:20:26.856Z,20.20
2019-04-07T12:23:24.275Z,20.20
2019-04-07T12:26:24.706Z,20.20
2019-04-07T12:29:18.946Z,20.10
2019-04-07T12:31:57.766Z,20.10
2019-04-07T12:34:46.372Z,20.20
2019-04-07T12:37:38.063Z,20.10
2019-04-07T12:40:15.231Z,20.20
2019-04-07T12:42:55.360Z,20.30
2019-04-07T12:45:38.503Z,20.30
2019-04-07T12:48:29.338Z,20.30
2019-04-07T12:51:30.785Z,20.30
2019-04-07T12:54:19.000Z,20.40
2019-04-07T12:57:16.867Z,20.40
2019-04-07T13:00:06.024Z,20.40
2019-04-07T13:02:47.640Z,20.50
2019-04-07T13:05:36.739Z,20.50
2019-04-07T13:08:40.418Z,20.60
2019-04-07T13:11:25.383Z,20.70
2019-04-07T13:14:07.410Z,20.80
2019-04-07T13:16:57.501Z,20.80
2019-04-07T13:19:38.487Z,21.00
2019-04-07T13:22:27.240Z,21.10
2019-04-07T13:25:25.191Z,21.20
2019-04-07T13:28:14.174Z,21.20
2019-04-07T13:31:07.064Z,21.30
2019-04-07T13:34:02.205Z,21.30
2019-04-07T13:36:43.606Z,21.40
2019-04-07T13:39:40.710Z,21.40
2019-04-07T13:42:15.286Z,21.40
2019-04-07T13:45:03.951Z,21.40
2019-04-07T13:47:52.453Z,21.40
2019-04-07T13:50:40.649Z,21.30
2019-04-07T13:53:35.610Z,21.30
2019-04-07T13:56:15.709Z,21.30
2019-04-07T13:59:08.191Z,21.30
2019-04-07T14:02:05.296Z,21.40
2019-04-07T14:04:37.795Z,21.40
2019-04-07T14:07:19.732Z,21.50
2019-04-07T14:10:06.896Z,21.50
2019-04-07T14:12:54.366Z,21.50
2019-04-07T14:15:48.561Z,21.50
2019-04-07T14:18:34.529Z,21.50
2019-04-07T14:21:38.519Z,21.40
2019-04-07T14:24:16.602Z,21.30
2019-04-07T14:27:02.136Z,21.30
2019-04-07T14:29:53.288Z,21.20
2019-04-07T14:32:46.648Z,21.20
2019-04-07T14:35:34.653Z,21.10
2019-04-07T14:38:31.900Z,21.20
2019-04-07T14:41:14.217Z,21.10
2019-04-07T14:44:21.413Z,21.10
2019-04-07T14:47:08.819Z,21.00
2019-04-07T14:49:57.302Z,20.90
2019-04-07T14:52:51.769Z,20.90
2019-04-07T14:55:31.519Z,20.90
2019-04-07T14:58:32.721Z,21.00
2019-04-07T15:01:20.292Z,21.00
2019-04-07T15:03:50.081Z,21.00
2019-04-07T15:06:19.536Z,21.00
2019-04-07T15:09:05.774Z,21.00
2019-04-07T15:11:46.966Z,21.00
2019-04-07T15:14:16.356Z,21.00
2019-04-07T15:16:45.693Z,21.00
2019-04-07T15:19:15.853Z,21.00
2019-04-07T15:21:46.362Z,21.00
2019-04-07T15:24:16.546Z,21.00
2019-04-07T15:26:49.538Z,21.00
2019-04-07T15:29:17.189Z,20.90
2019-04-07T15:31:50.055Z,20.90
2019-04-07T15:34:17.677Z,20.90
2019-04-07T15:36:48.454Z,20.90
2019-04-07T15:39:18.275Z,20.90
2019-04-07T15:41:47.816Z,21.00
2019-04-07T15:44:17.182Z,21.00
2019-04-07T15:46:52.392Z,20.90
2019-04-07T15:49:18.396Z,21.00
2019-04-07T15:51:48.706Z,20.90
2019-04-07T15:54:22.374Z,20.90
2019-04-07T15:56:50.250Z,20.80
2019-04-07T15:59:20.626Z,20.80
2019-04-07T16:01:50.192Z,20.80
2019-04-07T16:04:25.156Z,20.80
2019-04-07T16:06:51.526Z,20.90
2019-04-07T16:09:33.354Z,20.80
2019-04-07T16:11:53.210Z,20.80
2019-04-07T16:14:23.089Z,20.70
2019-04-07T16:16:53.599Z,20.70
2019-04-07T16:19:35.758Z,20.60
2019-04-07T16:21:57.151Z,20.60
2019-04-07T16:24:27.390Z,20.50
2019-04-07T16:26:58.950Z,20.40
2019-04-07T16:29:28.467Z,20.40
2019-04-07T16:31:58.631Z,20.40
2019-04-07T16:34:28.380Z,20.30
2019-04-07T16:37:00.190Z,20.20
2019-04-07T16:39:32.409Z,20.20
2019-04-07T16:42:00.234Z,20.20
2019-04-07T16:44:29.711Z,20.10
2019-04-07T16:47:02.914Z,20.10
2019-04-07T16:49:30.445Z,20.00
2019-04-07T16:52:02.193Z,19.90
2019-04-07T16:54:31.402Z,19.90
2019-04-07T16:57:00.790Z,19.70
2019-04-07T16:59:30.286Z,19.70
2019-04-07T17:02:00.199Z,19.60
2019-04-07T17:04:32.190Z,19.50
2019-04-07T17:07:05.002Z,19.50
2019-04-07T17:09:33.513Z,19.40
2019-04-07T17:12:03.557Z,19.40
2019-04-07T17:14:35.796Z,19.30
2019-04-07T17:17:04.748Z,19.30
2019-04-07T17:19:35.671Z,19.20
2019-04-07T17:22:05.418Z,19.10
2019-04-07T17:24:34.953Z,19.10
2019-04-07T17:27:04.682Z,19.00
2019-04-07T17:29:34.507Z,19.00
2019-04-07T17:32:06.044Z,18.90
2019-04-07T17:34:35.628Z,18.90
2019-04-07T17:37:05.319Z,18.80
2019-04-07T17:39:40.619Z,18.70
2019-04-07T17:42:14.438Z,18.70
2019-04-07T17:45:01.442Z,18.60
2019-04-07T17:47:52.877Z,18.60
2019-04-07T17:50:44.247Z,18.50
2019-04-07T17:53:46.588Z,18.40
2019-04-07T17:56:34.199Z,18.30
2019-04-07T17:59:19.247Z,18.30
2019-04-07T18:01:59.178Z,18.20
2019-04-07T18:04:51.253Z,18.10
2019-04-07T18:07:30.811Z,18.00
2019-04-07T18:10:22.646Z,18.00
2019-04-07T18:13:12.103Z,17.90
2019-04-07T18:15:57.382Z,17.80
2019-04-07T18:18:44.609Z,17.80
2019-04-07T18:21:31.598Z,17.70
2019-04-07T18:24:23.124Z,17.60
2019-04-07T18:27:14.211Z,17.50
2019-04-07T18:29:59.703Z,17.40
2019-04-07T18:32:53.525Z,17.40
2019-04-07T18:35:32.889Z,17.30
2019-04-07T18:38:24.096Z,17.20
2019-04-07T18:41:11.095Z,17.20
2019-04-07T18:44:05.581Z,17.10
2019-04-07T18:46:47.767Z,17.10
2019-04-07T18:49:39.324Z,17.00
2019-04-07T18:52:26.868Z,16.90
2019-04-07T18:55:22.466Z,16.90
2019-04-07T18:58:20.366Z,16.80
2019-04-07T19:01:08.926Z,16.80
2019-04-07T19:03:53.714Z,16.70
2019-04-07T19:06:47.507Z,16.60
2019-04-07T19:09:35.716Z,16.60
2019-04-07T19:12:23.191Z,16.50
2019-04-07T19:15:12.186Z,16.50
2019-04-07T19:18:09.920Z,16.40
2019-04-07T19:20:53.498Z,16.40
2019-04-07T19:23:41.929Z,16.30
2019-04-07T19:26:39.388Z,16.30
2019-04-07T19:29:26.295Z,16.20
2019-04-07T19:32:20.457Z,16.20
2019-04-07T19:35:17.008Z,16.10
2019-04-07T19:38:23.848Z,16.00
2019-04-07T19:41:12.188Z,16.00
2019-04-07T19:43:59.088Z,15.90
2019-04-07T19:46:46.398Z,15.80
2019-04-07T19:49:37.692Z,15.80
2019-04-07T19:52:14.137Z,15.70
2019-04-07T19:55:05.884Z,15.60
2019-04-07T19:57:52.858Z,15.60
2019-04-07T20:00:39.889Z,15.50
2019-04-07T20:03:40.213Z,15.50
2019-04-07T20:06:28.316Z,15.40
2019-04-07T20:09:09.353Z,15.40
2019-04-07T20:11:55.789Z,15.30
2019-04-07T20:14:46.586Z,15.30
2019-04-07T20:17:31.029Z,15.30
2019-04-07T20:20:31.666Z,15.30
2019-04-07T20:23:29.590Z,15.20
2019-04-07T20:26:10.098Z,15.20
2019-04-07T20:28:52.110Z,15.20
2019-04-07T20:31:29.959Z,15.10
2019-04-07T20:34:07.657Z,15.00
2019-04-07T20:36:55.120Z,15.00
2019-04-07T20:39:35.344Z,15.00
2019-04-07T20:42:32.327Z,14.90
2019-04-07T20:45:24.083Z,14.90
2019-04-07T20:48:19.286Z,14.90
2019-04-07T20:51:17.462Z,14.80
2019-04-07T20:54:10.105Z,14.80
2019-04-07T20:57:02.828Z,14.70
2019-04-07T20:59:53.020Z,14.70
2019-04-07T21:02:37.733Z,14.60
2019-04-07T21:05:38.413Z,14.60
2019-04-07T21:08:26.036Z,14.50
2019-04-07T21:11:08.715Z,14.50
2019-04-07T21:13:57.155Z,14.40
2019-04-07T21:16:51.375Z,14.40
2019-04-07T21:19:38.845Z,14.30
2019-04-07T21:22:30.027Z,14.30
2019-04-07T21:25:25.221Z,14.20
2019-04-07T21:28:07.314Z,14.20
2019-04-07T21:30:58.394Z,14.20
2019-04-07T21:33:47.699Z,14.10
2019-04-07T21:36:39.320Z,14.10
2019-04-07T21:39:45.495Z,14.10
2019-04-07T21:42:27.464Z,14.10
2019-04-07T21:45:15.043Z,14.00
2019-04-07T21:47:57.341Z,14.00
2019-04-07T21:50:43.911Z,13.90
2019-04-07T21:53:32.000Z,13.90
2019-04-07T21:56:15.674Z,13.80
2019-04-07T21:59:13.981Z,13.80
2019-04-07T22:02:09.122Z,13.70
2019-04-07T22:05:04.870Z,13.60
2019-04-07T22:07:53.565Z,13.60
2019-04-07T22:10:26.233Z,13.60
2019-04-07T22:13:00.287Z,13.50
2019-04-07T22:15:45.081Z,13.50
2019-04-07T22:18:08.657Z,13.50
2019-04-07T22:20:39.096Z,13.40
2019-04-07T22:23:10.067Z,13.40
2019-04-07T22:25:54.054Z,13.40
2019-04-07T22:28:28.506Z,13.30
2019-04-07T22:30:57.298Z,13.30
2019-04-07T22:33:31.109Z,13.30
2019-04-07T22:36:00.191Z,13.20
2019-04-07T22:38:35.928Z,13.20
2019-04-07T22:41:07.367Z,13.20
2019-04-07T22:43:38.076Z,13.10
2019-04-07T22:46:18.524Z,13.10
2019-04-07T22:48:43.831Z,13.00
2019-04-07T22:51:16.579Z,13.00
2019-04-07T22:54:34.800Z,13.00
2019-04-07T23:04:50.930Z,12.90
2019-04-07T23:08:18.837Z,12.80
2019-04-07T23:11:54.486Z,12.80
2019-04-07T23:19:25.187Z,12.80
2019-04-07T23:21:40.386Z,12.70
2019-04-07T23:24:10.799Z,12.70
2019-04-07T23:26:47.101Z,12.60
2019-04-07T23:29:36.647Z,12.60
2019-04-07T23:32:31.245Z,12.50
2019-04-07T23:35:26.107Z,12.50
2019-04-07T23:38:13.430Z,12.50
2019-04-07T23:40:49.392Z,12.40
2019-04-07T23:43:31.753Z,12.40
2019-04-07T23:49:45.212Z,12.40
2019-04-07T23:53:05.541Z,12.30
2019-04-07T23:56:41.578Z,12.30
